Thunder radar more information blitzortung!


Radar de pluja more information rain snow radar


Visita la nostra xarxa de llocs de meteo:

Template documentation
and downloads

And another site



No particular awareness of the weather is required.    There are no Weather-warnings

Pagina Historial Weather Underground text

Diari Resum Juliol 30, 2017 Unitats:  Tant    Imperial   Mètric
« Previous Dia
SegĂźent Dia »
Diari Setmana Mensual Anual Personalitzada
  Maxima: Minima: Media:
Temperatura: 95.9 °F /  35.5 °C 67.8 °F /  19.9 °C 82.4 °F /  28 °C
Punt de rosada: 66.4 °F /  19.1 °C 58.8 °F /  14.9 °C 63.5 °F /  17.5 °C
Humitat: 76 % 34 % 55 %
Wind Speed: 13.8 mph /  22.2 km/h - 5 mph /  8.1 km/h
RĂ fegues de vent: 13.8 mph /  22.2 km/h - -
Vent:- - East
Pression baro: 29.9 in /  1013.8 hPa 29.8 in /  1009.0 hPa -
Precipitacions: 0 in /  0.0 mm    
Historical Graphs
 
 
Dades de taula per Juliol 30, 2017
Temps Temperatura Punt de rosada Pression baro Vent Wind Speed RĂ fegues de vent Humitat Rainfall Rate (Hourly)
00:00 70 °F /  21.1 °C 58.8 °F /  14.9 °C 29.9 in /  1011.7 hPa Calm   2 mph /  3.2 km/h 68 % 0 in /  0.0 mm
00:04 76.3 °F /  24.6 °C 61.3 °F /  16.3 °C 29.9 in /  1013.8 hPa Calm     60 % 0 in /  0.0 mm
00:09 76.1 °F /  24.5 °C 61.2 °F /  16.2 °C 29.9 in /  1013.8 hPa Calm     60 % 0 in /  0.0 mm
00:10 69.4 °F /  20.8 °C 59.2 °F /  15.1 °C 29.9 in /  1011.7 hPa Calm   1 mph /  1.6 km/h 70 % 0 in /  0.0 mm
00:14 76.1 °F /  24.5 °C 61.7 °F /  16.5 °C 29.9 in /  1013.8 hPa WNW 1.2 mph /  1.9 km/h   61 % 0 in /  0.0 mm
00:19 75.9 °F /  24.4 °C 61.5 °F /  16.4 °C 29.9 in /  1013.8 hPa Calm     61 % 0 in /  0.0 mm
00:20 69.1 °F /  20.6 °C 59.4 °F /  15.2 °C 29.9 in /  1011.7 hPa Calm     71 % 0 in /  0.0 mm
00:24 75.9 °F /  24.4 °C 62.1 °F /  16.7 °C 29.9 in /  1013.8 hPa Calm     62 % 0 in /  0.0 mm
00:29 75.7 °F /  24.3 °C 61.9 °F /  16.6 °C 29.9 in /  1013.8 hPa Calm     62 % 0 in /  0.0 mm
00:30 68.9 °F /  20.5 °C 59.2 °F /  15.1 °C 29.9 in /  1011.7 hPa Calm   1 mph /  1.6 km/h 71 % 0 in /  0.0 mm
00:34 75.6 °F /  24.2 °C 61.5 °F /  16.4 °C 29.9 in /  1013.8 hPa Calm     62 % 0 in /  0.0 mm
00:40 68.7 °F /  20.4 °C 59.4 °F /  15.2 °C 29.9 in /  1011.7 hPa Calm   2 mph /  3.2 km/h 72 % 0 in /  0.0 mm
00:50 68.7 °F /  20.4 °C 59.7 °F /  15.4 °C 29.9 in /  1011.7 hPa Calm     73 % 0 in /  0.0 mm
01:00 68.5 °F /  20.3 °C 59.5 °F /  15.3 °C 29.9 in /  1011.7 hPa Calm     73 % 0 in /  0.0 mm
01:10 68.4 °F /  20.2 °C 59.4 °F /  15.2 °C 29.9 in /  1011.7 hPa Calm     73 % 0 in /  0.0 mm
01:20 68.4 °F /  20.2 °C 59.4 °F /  15.2 °C 29.9 in /  1011.7 hPa Calm     73 % 0 in /  0.0 mm
01:30 68.5 °F /  20.3 °C 59.5 °F /  15.3 °C 29.9 in /  1011.7 hPa Calm     73 % 0 in /  0.0 mm
01:40 68.2 °F /  20.1 °C 59.2 °F /  15.1 °C 29.9 in /  1011.7 hPa Calm     73 % 0 in /  0.0 mm
01:50 67.8 °F /  19.9 °C 59.2 °F /  15.1 °C 29.9 in /  1011.7 hPa Calm     74 % 0 in /  0.0 mm
02:00 67.8 °F /  19.9 °C 59.5 °F /  15.3 °C 29.9 in /  1011.7 hPa Calm     75 % 0 in /  0.0 mm
02:10 67.8 °F /  19.9 °C 59.5 °F /  15.3 °C 29.9 in /  1011.7 hPa Calm     75 % 0 in /  0.0 mm
02:20 68.2 °F /  20.1 °C 59.5 °F /  15.3 °C 29.9 in /  1011.7 hPa Calm     74 % 0 in /  0.0 mm
02:30 68.4 °F /  20.2 °C 59.7 °F /  15.4 °C 29.9 in /  1011.7 hPa Calm     74 % 0 in /  0.0 mm
02:40 69.3 °F /  20.7 °C 60.6 °F /  15.9 °C 29.9 in /  1011.7 hPa Calm   1 mph /  1.6 km/h 74 % 0 in /  0.0 mm
02:50 69.6 °F /  20.9 °C 60.3 °F /  15.7 °C 29.8 in /  1010.7 hPa ESE 1 mph /  1.6 km/h 1 mph /  1.6 km/h 72 % 0 in /  0.0 mm
03:00 69.6 °F /  20.9 °C 59.7 °F /  15.4 °C 29.8 in /  1010.7 hPa South 2 mph /  3.2 km/h 2 mph /  3.2 km/h 71 % 0 in /  0.0 mm
03:10 70.7 °F /  21.5 °C 60.8 °F /  16.0 °C 29.9 in /  1011.7 hPa Calm   2 mph /  3.2 km/h 71 % 0 in /  0.0 mm
03:20 70.9 °F /  21.6 °C 60.6 °F /  15.9 °C 29.8 in /  1010.7 hPa Calm   2 mph /  3.2 km/h 70 % 0 in /  0.0 mm
03:30 72 °F /  22.2 °C 60.8 °F /  16.0 °C 29.8 in /  1010.7 hPa WSW 1 mph /  1.6 km/h 2 mph /  3.2 km/h 68 % 0 in /  0.0 mm
03:40 72.7 °F /  22.6 °C 61.5 °F /  16.4 °C 29.9 in /  1011.7 hPa SW 1 mph /  1.6 km/h 2 mph /  3.2 km/h 68 % 0 in /  0.0 mm
03:50 72.9 °F /  22.7 °C 61.3 °F /  16.3 °C 29.9 in /  1011.7 hPa SW 1 mph /  1.6 km/h 2 mph /  3.2 km/h 67 % 0 in /  0.0 mm
04:00 74.5 °F /  23.6 °C 62.4 °F /  16.9 °C 29.9 in /  1011.7 hPa Calm   1 mph /  1.6 km/h 66 % 0 in /  0.0 mm
04:10 75.6 °F /  24.2 °C 61.5 °F /  16.4 °C 29.9 in /  1011.7 hPa NNE 1 mph /  1.6 km/h 2 mph /  3.2 km/h 62 % 0 in /  0.0 mm
04:20 76.8 °F /  24.9 °C 61.9 °F /  16.6 °C 29.9 in /  1011.7 hPa NE 2 mph /  3.2 km/h 2 mph /  3.2 km/h 60 % 0 in /  0.0 mm
04:30 78.1 °F /  25.6 °C 61.5 °F /  16.4 °C 29.9 in /  1011.7 hPa ENE 1 mph /  1.6 km/h 2 mph /  3.2 km/h 57 % 0 in /  0.0 mm
04:40 78.3 °F /  25.7 °C 60.8 °F /  16.0 °C 29.9 in /  1011.7 hPa ENE 1 mph /  1.6 km/h 3 mph /  4.8 km/h 55 % 0 in /  0.0 mm
04:50 78.8 °F /  26.0 °C 60.6 °F /  15.9 °C 29.9 in /  1011.7 hPa East 2 mph /  3.2 km/h 3 mph /  4.8 km/h 54 % 0 in /  0.0 mm
05:10 82 °F /  27.8 °C 62.8 °F /  17.1 °C 29.9 in /  1011.7 hPa Calm   2 mph /  3.2 km/h 52 % 0 in /  0.0 mm
05:20 81.3 °F /  27.4 °C 61.5 °F /  16.4 °C 29.8 in /  1010.7 hPa ESE 3 mph /  4.8 km/h 3 mph /  4.8 km/h 51 % 0 in /  0.0 mm
05:30 81.7 °F /  27.6 °C 61.2 °F /  16.2 °C 29.8 in /  1010.7 hPa ESE 3 mph /  4.8 km/h 3 mph /  4.8 km/h 50 % 0 in /  0.0 mm
05:40 82 °F /  27.8 °C 62.1 °F /  16.7 °C 29.9 in /  1011.7 hPa East 2 mph /  3.2 km/h 4 mph /  6.4 km/h 51 % 0 in /  0.0 mm
05:50 82.6 °F /  28.1 °C 62.1 °F /  16.7 °C 29.9 in /  1011.7 hPa East 3 mph /  4.8 km/h 4 mph /  6.4 km/h 50 % 0 in /  0.0 mm
06:00 83.3 °F /  28.5 °C 62.8 °F /  17.1 °C 29.9 in /  1011.7 hPa East 3 mph /  4.8 km/h 4 mph /  6.4 km/h 50 % 0 in /  0.0 mm
06:10 84.9 °F /  29.4 °C 63 °F /  17.2 °C 29.9 in /  1011.7 hPa East 3 mph /  4.8 km/h 4 mph /  6.4 km/h 48 % 0 in /  0.0 mm
06:20 84.4 °F /  29.1 °C 63.1 °F /  17.3 °C 29.9 in /  1011.7 hPa ENE 3 mph /  4.8 km/h 4 mph /  6.4 km/h 49 % 0 in /  0.0 mm
11:30 86.4 °F /  30.2 °C 64.4 °F /  18.0 °C 29.9 in /  1011.7 hPa SSW 2.4 mph /  3.9 km/h 3.1 mph /  5.0 km/h 48 % 0 in /  0.0 mm
11:35 87.6 °F /  30.9 °C 65.5 °F /  18.6 °C 29.9 in /  1011.7 hPa West 2.2 mph /  3.5 km/h 2.2 mph /  3.5 km/h 48 % 0 in /  0.0 mm
11:45 88.3 °F /  31.3 °C 65.7 °F /  18.7 °C 29.9 in /  1011.7 hPa SE 4.6 mph /  7.4 km/h 4.6 mph /  7.4 km/h 47 % 0 in /  0.0 mm
11:50 86.5 °F /  30.3 °C 63.9 °F /  17.7 °C 29.9 in /  1011.7 hPa ESE 6.9 mph /  11.1 km/h 6.9 mph /  11.1 km/h 47 % 0 in /  0.0 mm
11:54 88 °F /  31.1 °C 64.6 °F /  18.1 °C 29.9 in /  1011.7 hPa SSE 3.5 mph /  5.6 km/h 3.5 mph /  5.6 km/h 46 % 0 in /  0.0 mm
11:55 88 °F /  31.1 °C 64.6 °F /  18.1 °C 29.9 in /  1011.7 hPa West 3.5 mph /  5.6 km/h 3.5 mph /  5.6 km/h 46 % 0 in /  0.0 mm
12:00 87.6 °F /  30.9 °C 64.9 °F /  18.3 °C 29.9 in /  1011.7 hPa East 3.5 mph /  5.6 km/h 3.5 mph /  5.6 km/h 47 % 0 in /  0.0 mm
12:05 88.5 °F /  31.4 °C 65.7 °F /  18.7 °C 29.9 in /  1011.7 hPa SSW 2.3 mph /  3.7 km/h 2.3 mph /  3.7 km/h 47 % 0 in /  0.0 mm
12:10 89.6 °F /  32.0 °C 66 °F /  18.9 °C 29.9 in /  1011.7 hPa SW 3.5 mph /  5.6 km/h 3.5 mph /  5.6 km/h 46 % 0 in /  0.0 mm
12:15 88.9 °F /  31.6 °C 66 °F /  18.9 °C 29.9 in /  1011.7 hPa ENE 3.5 mph /  5.6 km/h 3.5 mph /  5.6 km/h 47 % 0 in /  0.0 mm
12:20 88.5 °F /  31.4 °C 65.7 °F /  18.7 °C 29.8 in /  1010.7 hPa ENE 6.9 mph /  11.1 km/h 6.9 mph /  11.1 km/h 47 % 0 in /  0.0 mm
12:25 87.8 °F /  31.0 °C 65.1 °F /  18.4 °C 29.8 in /  1010.7 hPa ENE 4.6 mph /  7.4 km/h 5.4 mph /  8.7 km/h 47 % 0 in /  0.0 mm
12:30 87.8 °F /  31.0 °C 65.1 °F /  18.4 °C 29.8 in /  1010.7 hPa ENE 4.6 mph /  7.4 km/h 4.6 mph /  7.4 km/h 47 % 0 in /  0.0 mm
12:35 88.7 °F /  31.5 °C 65.8 °F /  18.8 °C 29.9 in /  1011.7 hPa NE 4 mph /  6.4 km/h 4 mph /  6.4 km/h 47 % 0 in /  0.0 mm
12:40 88.5 °F /  31.4 °C 65.7 °F /  18.7 °C 29.9 in /  1011.7 hPa East 5.8 mph /  9.3 km/h 5.8 mph /  9.3 km/h 47 % 0 in /  0.0 mm
12:45 89.2 °F /  31.8 °C 66.4 °F /  19.1 °C 29.9 in /  1011.7 hPa NE 2.3 mph /  3.7 km/h 2.3 mph /  3.7 km/h 47 % 0 in /  0.0 mm
12:50 88.9 °F /  31.6 °C 65.5 °F /  18.6 °C 29.8 in /  1010.7 hPa ESE 6.4 mph /  10.3 km/h 6.4 mph /  10.3 km/h 46 % 0 in /  0.0 mm
12:55 88.2 °F /  31.2 °C 64.8 °F /  18.2 °C 29.8 in /  1010.7 hPa East 10.4 mph /  16.7 km/h 10.4 mph /  16.7 km/h 46 % 0 in /  0.0 mm
13:00 88.3 °F /  31.3 °C 64.2 °F /  17.9 °C 29.8 in /  1010.7 hPa East 10.7 mph /  17.2 km/h 10.7 mph /  17.2 km/h 45 % 0 in /  0.0 mm
13:05 89.1 °F /  31.7 °C 64.9 °F /  18.3 °C 29.8 in /  1010.7 hPa ESE 8.1 mph /  13.0 km/h 8.1 mph /  13.0 km/h 45 % 0 in /  0.0 mm
13:10 88.7 °F /  31.5 °C 64.6 °F /  18.1 °C 29.8 in /  1010.7 hPa SSE 7.8 mph /  12.6 km/h 7.8 mph /  12.6 km/h 45 % 0 in /  0.0 mm
13:11 88.7 °F /  31.5 °C 64.6 °F /  18.1 °C 29.8 in /  1010.7 hPa East 8.1 mph /  13.0 km/h 8.1 mph /  13.0 km/h 45 % 0 in /  0.0 mm
13:16 88.5 °F /  31.4 °C 63.9 °F /  17.7 °C 29.8 in /  1010.7 hPa SE 6.9 mph /  11.1 km/h 6.9 mph /  11.1 km/h 44 % 0 in /  0.0 mm
13:21 89.1 °F /  31.7 °C 64.2 °F /  17.9 °C 29.8 in /  1010.7 hPa ESE 10.4 mph /  16.7 km/h 10.4 mph /  16.7 km/h 44 % 0 in /  0.0 mm
13:26 88.9 °F /  31.6 °C 64 °F /  17.8 °C 29.8 in /  1010.7 hPa East 6.4 mph /  10.3 km/h 6.4 mph /  10.3 km/h 44 % 0 in /  0.0 mm
13:31 89.8 °F /  32.1 °C 64.2 °F /  17.9 °C 29.8 in /  1010.7 hPa East 11.5 mph /  18.5 km/h 11.5 mph /  18.5 km/h 43 % 0 in /  0.0 mm
13:36 89.2 °F /  31.8 °C 63.9 °F /  17.7 °C 29.8 in /  1010.0 hPa SE 11.5 mph /  18.5 km/h 11.5 mph /  18.5 km/h 43 % 0 in /  0.0 mm
13:41 89.2 °F /  31.8 °C 63.9 °F /  17.7 °C 29.8 in /  1010.0 hPa SE 8.1 mph /  13.0 km/h 8.1 mph /  13.0 km/h 43 % 0 in /  0.0 mm
13:46 89.2 °F /  31.8 °C 63.9 °F /  17.7 °C 29.8 in /  1010.0 hPa ESE 9.2 mph /  14.8 km/h 9.2 mph /  14.8 km/h 43 % 0 in /  0.0 mm
13:51 88.9 °F /  31.6 °C 63.5 °F /  17.5 °C 29.8 in /  1010.0 hPa ENE 8.1 mph /  13.0 km/h 9 mph /  14.5 km/h 43 % 0 in /  0.0 mm
13:56 88.9 °F /  31.6 °C 64 °F /  17.8 °C 29.8 in /  1010.0 hPa ENE 12.7 mph /  20.4 km/h 12.7 mph /  20.4 km/h 44 % 0 in /  0.0 mm
14:01 89.2 °F /  31.8 °C 64.6 °F /  18.1 °C 29.8 in /  1010.0 hPa NE 9.2 mph /  14.8 km/h 9.2 mph /  14.8 km/h 44 % 0 in /  0.0 mm
14:06 89.1 °F /  31.7 °C 63.7 °F /  17.6 °C 29.8 in /  1010.0 hPa ESE 10.4 mph /  16.7 km/h 10.4 mph /  16.7 km/h 43 % 0 in /  0.0 mm
14:11 89.8 °F /  32.1 °C 64.9 °F /  18.3 °C 29.8 in /  1010.0 hPa ESE 10.2 mph /  16.4 km/h 10.2 mph /  16.4 km/h 44 % 0 in /  0.0 mm
14:16 90 °F /  32.2 °C 64.6 °F /  18.1 °C 29.8 in /  1010.0 hPa ENE 6 mph /  9.7 km/h 6 mph /  9.7 km/h 43 % 0 in /  0.0 mm
14:21 89.8 °F /  32.1 °C 64.2 °F /  17.9 °C 29.8 in /  1010.0 hPa SE 11.5 mph /  18.5 km/h 11.5 mph /  18.5 km/h 43 % 0 in /  0.0 mm
14:26 89.6 °F /  32.0 °C 64 °F /  17.8 °C 29.8 in /  1010.0 hPa ESE 10.7 mph /  17.2 km/h 10.7 mph /  17.2 km/h 43 % 0 in /  0.0 mm
14:31 89.2 °F /  31.8 °C 63.9 °F /  17.7 °C 29.8 in /  1010.0 hPa ESE 10.4 mph /  16.7 km/h 10.4 mph /  16.7 km/h 43 % 0 in /  0.0 mm
14:36 90 °F /  32.2 °C 64.6 °F /  18.1 °C 29.8 in /  1010.0 hPa East 10.4 mph /  16.7 km/h 10.4 mph /  16.7 km/h 43 % 0 in /  0.0 mm
14:41 90 °F /  32.2 °C 63.9 °F /  17.7 °C 29.8 in /  1010.0 hPa ESE 8.1 mph /  13.0 km/h 8.7 mph /  14.0 km/h 42 % 0 in /  0.0 mm
14:46 90 °F /  32.2 °C 63.9 °F /  17.7 °C 29.8 in /  1010.0 hPa ESE 12.7 mph /  20.4 km/h 12.7 mph /  20.4 km/h 42 % 0 in /  0.0 mm
14:51 90.3 °F /  32.4 °C 64 °F /  17.8 °C 29.8 in /  1010.0 hPa East 10.4 mph /  16.7 km/h 10.4 mph /  16.7 km/h 42 % 0 in /  0.0 mm
14:56 90.5 °F /  32.5 °C 64.2 °F /  17.9 °C 29.8 in /  1010.0 hPa ESE 9.2 mph /  14.8 km/h 9.2 mph /  14.8 km/h 42 % 0 in /  0.0 mm
15:01 90.3 °F /  32.4 °C 63.3 °F /  17.4 °C 29.8 in /  1010.0 hPa East 13.2 mph /  21.2 km/h 13.2 mph /  21.2 km/h 41 % 0 in /  0.0 mm
15:06 90.5 °F /  32.5 °C 64.2 °F /  17.9 °C 29.8 in /  1010.7 hPa ESE 13.8 mph /  22.2 km/h 13.8 mph /  22.2 km/h 42 % 0 in /  0.0 mm
15:16 90.1 °F /  32.3 °C 64 °F /  17.8 °C 29.8 in /  1010.7 hPa ENE 10.4 mph /  16.7 km/h 10.4 mph /  16.7 km/h 42 % 0 in /  0.0 mm
15:21 91 °F /  32.8 °C 64.8 °F /  18.2 °C 29.8 in /  1010.7 hPa ENE 10.5 mph /  16.9 km/h 10.5 mph /  16.9 km/h 42 % 0 in /  0.0 mm
15:26 90.7 °F /  32.6 °C 64.4 °F /  18.0 °C 29.8 in /  1010.7 hPa NNE 11.5 mph /  18.5 km/h 11.5 mph /  18.5 km/h 42 % 0 in /  0.0 mm
15:31 91.4 °F /  33.0 °C 63.7 °F /  17.6 °C 29.8 in /  1010.7 hPa East 8.1 mph /  13.0 km/h 8.1 mph /  13.0 km/h 40 % 0 in /  0.0 mm
15:36 91.4 °F /  33.0 °C 62.2 °F /  16.8 °C 29.8 in /  1010.7 hPa SE 9.2 mph /  14.8 km/h 9.2 mph /  14.8 km/h 38 % 0 in /  0.0 mm
15:41 92.3 °F /  33.5 °C 63.9 °F /  17.7 °C 29.8 in /  1010.7 hPa East 6.9 mph /  11.1 km/h 6.9 mph /  11.1 km/h 39 % 0 in /  0.0 mm
15:46 91.4 °F /  33.0 °C 63 °F /  17.2 °C 29.8 in /  1010.7 hPa East 7.1 mph /  11.4 km/h 7.1 mph /  11.4 km/h 39 % 0 in /  0.0 mm
15:51 91.2 °F /  32.9 °C 63.5 °F /  17.5 °C 29.8 in /  1010.0 hPa ESE 9.2 mph /  14.8 km/h 9.2 mph /  14.8 km/h 40 % 0 in /  0.0 mm
15:56 92.3 °F /  33.5 °C 62.2 °F /  16.8 °C 29.8 in /  1010.0 hPa South 5.8 mph /  9.3 km/h 5.8 mph /  9.3 km/h 37 % 0 in /  0.0 mm
16:01 93.4 °F /  34.1 °C 62.4 °F /  16.9 °C 29.8 in /  1010.0 hPa East 4.6 mph /  7.4 km/h 4.6 mph /  7.4 km/h 36 % 0 in /  0.0 mm
16:06 94.5 °F /  34.7 °C 64.9 °F /  18.3 °C 29.8 in /  1010.0 hPa SW 6.2 mph /  10.0 km/h 6.2 mph /  10.0 km/h 38 % 0 in /  0.0 mm
16:11 94.3 °F /  34.6 °C 64 °F /  17.8 °C 29.8 in /  1010.0 hPa SW 5.8 mph /  9.3 km/h 5.8 mph /  9.3 km/h 37 % 0 in /  0.0 mm
16:16 94.6 °F /  34.8 °C 63.5 °F /  17.5 °C 29.8 in /  1010.0 hPa ESE 3.5 mph /  5.6 km/h 3.5 mph /  5.6 km/h 36 % 0 in /  0.0 mm
16:21 94.1 °F /  34.5 °C 63.1 °F /  17.3 °C 29.8 in /  1010.0 hPa SE 9.2 mph /  14.8 km/h 9.2 mph /  14.8 km/h 36 % 0 in /  0.0 mm
16:26 94.1 °F /  34.5 °C 63.9 °F /  17.7 °C 29.8 in /  1010.0 hPa South 2.3 mph /  3.7 km/h 2.3 mph /  3.7 km/h 37 % 0 in /  0.0 mm
16:31 95 °F /  35.0 °C 63.1 °F /  17.3 °C 29.8 in /  1010.0 hPa SSW 5.8 mph /  9.3 km/h 5.8 mph /  9.3 km/h 35 % 0 in /  0.0 mm
16:37 94.6 °F /  34.8 °C 63.5 °F /  17.5 °C 29.8 in /  1010.0 hPa South 3.5 mph /  5.6 km/h 3.5 mph /  5.6 km/h 36 % 0 in /  0.0 mm
16:42 95.9 °F /  35.5 °C 63 °F /  17.2 °C 29.8 in /  1010.0 hPa SSW 3.5 mph /  5.6 km/h 3.5 mph /  5.6 km/h 34 % 0 in /  0.0 mm
16:47 93.9 °F /  34.4 °C 61.3 °F /  16.3 °C 29.8 in /  1010.0 hPa ESE 6.9 mph /  11.1 km/h 6.9 mph /  11.1 km/h 34 % 0 in /  0.0 mm
16:52 93.6 °F /  34.2 °C 62.6 °F /  17.0 °C 29.8 in /  1010.0 hPa South 5.8 mph /  9.3 km/h 5.8 mph /  9.3 km/h 36 % 0 in /  0.0 mm
16:57 93.4 °F /  34.1 °C 61.5 °F /  16.4 °C 29.8 in /  1010.0 hPa NE 5.8 mph /  9.3 km/h 5.8 mph /  9.3 km/h 35 % 0 in /  0.0 mm
17:02 92.8 °F /  33.8 °C 61.2 °F /  16.2 °C 29.8 in /  1010.0 hPa NE 5.8 mph /  9.3 km/h 5.8 mph /  9.3 km/h 35 % 0 in /  0.0 mm
17:07 93 °F /  33.9 °C 61.3 °F /  16.3 °C 29.8 in /  1010.0 hPa SE 5.8 mph /  9.3 km/h 5.8 mph /  9.3 km/h 35 % 0 in /  0.0 mm
17:12 93 °F /  33.9 °C 62.1 °F /  16.7 °C 29.8 in /  1010.0 hPa ESE 8.1 mph /  13.0 km/h 8.1 mph /  13.0 km/h 36 % 0 in /  0.0 mm
17:17 92.3 °F /  33.5 °C 61.5 °F /  16.4 °C 29.8 in /  1010.0 hPa ESE 8.1 mph /  13.0 km/h 8.1 mph /  13.0 km/h 36 % 0 in /  0.0 mm
17:22 91 °F /  32.8 °C 61.2 °F /  16.2 °C 29.8 in /  1010.0 hPa ESE 9.2 mph /  14.8 km/h 9.2 mph /  14.8 km/h 37 % 0 in /  0.0 mm
17:27 90.9 °F /  32.7 °C 61.7 °F /  16.5 °C 29.8 in /  1010.0 hPa ENE 5.8 mph /  9.3 km/h 5.8 mph /  9.3 km/h 38 % 0 in /  0.0 mm
17:32 91.2 °F /  32.9 °C 62.1 °F /  16.7 °C 29.8 in /  1010.0 hPa ESE 5.8 mph /  9.3 km/h 5.8 mph /  9.3 km/h 38 % 0 in /  0.0 mm
17:37 91.2 °F /  32.9 °C 62.1 °F /  16.7 °C 29.8 in /  1010.0 hPa SE 9.2 mph /  14.8 km/h 9.2 mph /  14.8 km/h 38 % 0 in /  0.0 mm
17:42 90.7 °F /  32.6 °C 62.2 °F /  16.8 °C 29.8 in /  1010.0 hPa SSE 10.4 mph /  16.7 km/h 10.4 mph /  16.7 km/h 39 % 0 in /  0.0 mm
17:47 90.3 °F /  32.4 °C 62.8 °F /  17.1 °C 29.8 in /  1010.0 hPa ESE 4.6 mph /  7.4 km/h 4.6 mph /  7.4 km/h 40 % 0 in /  0.0 mm
17:52 89.6 °F /  32.0 °C 62.8 °F /  17.1 °C 29.8 in /  1010.0 hPa ENE 10.4 mph /  16.7 km/h 10.4 mph /  16.7 km/h 41 % 0 in /  0.0 mm
17:55 89.2 °F /  31.8 °C 62.4 °F /  16.9 °C 29.8 in /  1010.0 hPa East 8.1 mph /  13.0 km/h 8.1 mph /  13.0 km/h 41 % 0 in /  0.0 mm
18:00 89.2 °F /  31.8 °C 63.1 °F /  17.3 °C 29.8 in /  1010.0 hPa East 5.8 mph /  9.3 km/h 6 mph /  9.7 km/h 42 % 0 in /  0.0 mm
18:05 88.5 °F /  31.4 °C 62.4 °F /  16.9 °C 29.8 in /  1010.0 hPa ENE 11.5 mph /  18.5 km/h 11.5 mph /  18.5 km/h 42 % 0 in /  0.0 mm
18:10 88.5 °F /  31.4 °C 63.1 °F /  17.3 °C 29.8 in /  1010.0 hPa NE 9.2 mph /  14.8 km/h 9.2 mph /  14.8 km/h 43 % 0 in /  0.0 mm
18:15 88 °F /  31.1 °C 62.8 °F /  17.1 °C 29.8 in /  1010.0 hPa ESE 9.2 mph /  14.8 km/h 9.2 mph /  14.8 km/h 43 % 0 in /  0.0 mm
18:20 87.6 °F /  30.9 °C 63 °F /  17.2 °C 29.8 in /  1010.0 hPa ESE 9.2 mph /  14.8 km/h 9.2 mph /  14.8 km/h 44 % 0 in /  0.0 mm
18:25 87.1 °F /  30.6 °C 63.1 °F /  17.3 °C 29.8 in /  1010.0 hPa NE 10.4 mph /  16.7 km/h 10.4 mph /  16.7 km/h 45 % 0 in /  0.0 mm
18:30 87.1 °F /  30.6 °C 63.1 °F /  17.3 °C 29.8 in /  1010.0 hPa East 6.9 mph /  11.1 km/h 6.9 mph /  11.1 km/h 45 % 0 in /  0.0 mm
18:35 86.7 °F /  30.4 °C 63.5 °F /  17.5 °C 29.8 in /  1010.0 hPa East 10.4 mph /  16.7 km/h 10.4 mph /  16.7 km/h 46 % 0 in /  0.0 mm
18:40 86.5 °F /  30.3 °C 63.3 °F /  17.4 °C 29.8 in /  1010.0 hPa ESE 10.7 mph /  17.2 km/h 10.7 mph /  17.2 km/h 46 % 0 in /  0.0 mm
18:45 86.5 °F /  30.3 °C 63.9 °F /  17.7 °C 29.8 in /  1010.0 hPa ENE 6.9 mph /  11.1 km/h 6.9 mph /  11.1 km/h 47 % 0 in /  0.0 mm
18:50 86.5 °F /  30.3 °C 63.9 °F /  17.7 °C 29.8 in /  1010.0 hPa ESE 9.8 mph /  15.8 km/h 9.8 mph /  15.8 km/h 47 % 0 in /  0.0 mm
18:55 85.8 °F /  29.9 °C 63.9 °F /  17.7 °C 29.8 in /  1010.0 hPa NE 10.4 mph /  16.7 km/h 10.4 mph /  16.7 km/h 48 % 0 in /  0.0 mm
19:00 85.6 °F /  29.8 °C 64.2 °F /  17.9 °C 29.8 in /  1010.0 hPa ENE 9.2 mph /  14.8 km/h 9.2 mph /  14.8 km/h 49 % 0 in /  0.0 mm
19:05 85.3 °F /  29.6 °C 64 °F /  17.8 °C 29.8 in /  1010.0 hPa East 8.1 mph /  13.0 km/h 8.1 mph /  13.0 km/h 49 % 0 in /  0.0 mm
19:10 84.7 °F /  29.3 °C 64 °F /  17.8 °C 29.8 in /  1010.0 hPa ENE 9.2 mph /  14.8 km/h 9.2 mph /  14.8 km/h 50 % 0 in /  0.0 mm
19:15 84.7 °F /  29.3 °C 64.6 °F /  18.1 °C 29.8 in /  1010.0 hPa ENE 8.1 mph /  13.0 km/h 8.1 mph /  13.0 km/h 51 % 0 in /  0.0 mm
19:20 84.6 °F /  29.2 °C 64.9 °F /  18.3 °C 29.8 in /  1010.0 hPa East 9.2 mph /  14.8 km/h 9.2 mph /  14.8 km/h 52 % 0 in /  0.0 mm
19:25 84.4 °F /  29.1 °C 64.8 °F /  18.2 °C 29.8 in /  1010.0 hPa ENE 8.1 mph /  13.0 km/h 8.1 mph /  13.0 km/h 52 % 0 in /  0.0 mm
19:30 83.8 °F /  28.8 °C 65.5 °F /  18.6 °C 29.8 in /  1010.0 hPa ESE 10.4 mph /  16.7 km/h 10.4 mph /  16.7 km/h 54 % 0 in /  0.0 mm
19:35 83.5 °F /  28.6 °C 65.7 °F /  18.7 °C 29.8 in /  1010.0 hPa ESE 9.2 mph /  14.8 km/h 9.2 mph /  14.8 km/h 55 % 0 in /  0.0 mm
19:40 83.5 °F /  28.6 °C 65.7 °F /  18.7 °C 29.8 in /  1010.0 hPa ESE 5.8 mph /  9.3 km/h 5.8 mph /  9.3 km/h 55 % 0 in /  0.0 mm
19:45 83.5 °F /  28.6 °C 65.7 °F /  18.7 °C 29.8 in /  1010.0 hPa ESE 8.5 mph /  13.7 km/h 8.5 mph /  13.7 km/h 55 % 0 in /  0.0 mm
19:50 83.1 °F /  28.4 °C 65.8 °F /  18.8 °C 29.8 in /  1010.0 hPa ESE 6.9 mph /  11.1 km/h 6.9 mph /  11.1 km/h 56 % 0 in /  0.0 mm
19:55 82.9 °F /  28.3 °C 65.7 °F /  18.7 °C 29.8 in /  1010.0 hPa ESE 10.4 mph /  16.7 km/h 10.4 mph /  16.7 km/h 56 % 0 in /  0.0 mm
20:00 82.4 °F /  28.0 °C 65.7 °F /  18.7 °C 29.8 in /  1010.0 hPa ESE 6.2 mph /  10.0 km/h 6.2 mph /  10.0 km/h 57 % 0 in /  0.0 mm
20:05 82.2 °F /  27.9 °C 65.5 °F /  18.6 °C 29.8 in /  1010.0 hPa East 6.9 mph /  11.1 km/h 6.9 mph /  11.1 km/h 57 % 0 in /  0.0 mm
20:10 82 °F /  27.8 °C 65.8 °F /  18.8 °C 29.8 in /  1010.0 hPa ESE 6.9 mph /  11.1 km/h 6.9 mph /  11.1 km/h 58 % 0 in /  0.0 mm
20:15 81.9 °F /  27.7 °C 65.1 °F /  18.4 °C 29.8 in /  1010.0 hPa ESE 8.1 mph /  13.0 km/h 8.1 mph /  13.0 km/h 57 % 0 in /  0.0 mm
20:20 81.5 °F /  27.5 °C 64.8 °F /  18.2 °C 29.8 in /  1010.0 hPa ESE 7.4 mph /  11.9 km/h 7.4 mph /  11.9 km/h 57 % 0 in /  0.0 mm
20:25 81.3 °F /  27.4 °C 64.6 °F /  18.1 °C 29.8 in /  1010.0 hPa ENE 8.1 mph /  13.0 km/h 8.1 mph /  13.0 km/h 57 % 0 in /  0.0 mm
20:30 81.1 °F /  27.3 °C 64 °F /  17.8 °C 29.8 in /  1010.0 hPa ESE 5.8 mph /  9.3 km/h 5.8 mph /  9.3 km/h 56 % 0 in /  0.0 mm
20:35 81.1 °F /  27.3 °C 64 °F /  17.8 °C 29.8 in /  1010.0 hPa SE 4.6 mph /  7.4 km/h 4.6 mph /  7.4 km/h 56 % 0 in /  0.0 mm
20:40 81 °F /  27.2 °C 63.9 °F /  17.7 °C 29.8 in /  1010.0 hPa East 5.8 mph /  9.3 km/h 5.8 mph /  9.3 km/h 56 % 0 in /  0.0 mm
20:45 80.8 °F /  27.1 °C 63.1 °F /  17.3 °C 29.8 in /  1010.0 hPa ENE 4.6 mph /  7.4 km/h 4.6 mph /  7.4 km/h 55 % 0 in /  0.0 mm
20:50 80.6 °F /  27.0 °C 63 °F /  17.2 °C 29.8 in /  1010.7 hPa ENE 4.3 mph /  6.9 km/h 4.3 mph /  6.9 km/h 55 % 0 in /  0.0 mm
20:55 80.4 °F /  26.9 °C 63.3 °F /  17.4 °C 29.8 in /  1010.7 hPa ENE 4.6 mph /  7.4 km/h 4.6 mph /  7.4 km/h 56 % 0 in /  0.0 mm
21:00 80.2 °F /  26.8 °C 63.7 °F /  17.6 °C 29.8 in /  1010.7 hPa ENE 5.8 mph /  9.3 km/h 5.8 mph /  9.3 km/h 57 % 0 in /  0.0 mm
21:05 80.1 °F /  26.7 °C 63.5 °F /  17.5 °C 29.8 in /  1009.0 hPa East 3.5 mph /  5.6 km/h 3.5 mph /  5.6 km/h 57 % 0 in /  0.0 mm
21:10 79.7 °F /  26.5 °C 63.7 °F /  17.6 °C 29.8 in /  1009.0 hPa ESE 3.6 mph /  5.8 km/h 3.6 mph /  5.8 km/h 58 % 0 in /  0.0 mm
21:11 79.7 °F /  26.5 °C 63.7 °F /  17.6 °C 29.8 in /  1009.0 hPa ENE 3.6 mph /  5.8 km/h 3.6 mph /  5.8 km/h 58 % 0 in /  0.0 mm
21:16 79.5 °F /  26.4 °C 63.3 °F /  17.4 °C 29.8 in /  1009.0 hPa ENE 4.6 mph /  7.4 km/h 4.6 mph /  7.4 km/h 58 % 0 in /  0.0 mm
21:20 73.9 °F /  23.3 °C 65.5 °F /  18.6 °C 29.8 in /  1010.0 hPa NE 2 mph /  3.2 km/h 2 mph /  3.2 km/h 75 % 0 in /  0.0 mm
21:21 79.3 °F /  26.3 °C 64.2 °F /  17.9 °C 29.8 in /  1010.0 hPa East 5.9 mph /  9.5 km/h 5.9 mph /  9.5 km/h 60 % 0 in /  0.0 mm
21:26 79 °F /  26.1 °C 64.4 °F /  18.0 °C 29.8 in /  1010.0 hPa NNE 5.8 mph /  9.3 km/h 5.8 mph /  9.3 km/h 61 % 0 in /  0.0 mm
21:30 73.8 °F /  23.2 °C 65.3 °F /  18.5 °C 29.8 in /  1010.0 hPa NE 2 mph /  3.2 km/h 3 mph /  4.8 km/h 75 % 0 in /  0.0 mm
21:31 78.8 °F /  26.0 °C 64.2 °F /  17.9 °C 29.8 in /  1010.0 hPa NNE 3.1 mph /  5.0 km/h 3.1 mph /  5.0 km/h 61 % 0 in /  0.0 mm
21:36 78.6 °F /  25.9 °C 64 °F /  17.8 °C 29.8 in /  1010.0 hPa NE 4.6 mph /  7.4 km/h 4.6 mph /  7.4 km/h 61 % 0 in /  0.0 mm
21:40 73.6 °F /  23.1 °C 65.5 °F /  18.6 °C 29.8 in /  1010.0 hPa Calm   2 mph /  3.2 km/h 76 % 0 in /  0.0 mm
21:41 78.6 °F /  25.9 °C 64.6 °F /  18.1 °C 29.8 in /  1010.0 hPa East 3.5 mph /  5.6 km/h 3.5 mph /  5.6 km/h 62 % 0 in /  0.0 mm
21:46 78.3 °F /  25.7 °C 64.6 °F /  18.1 °C 29.8 in /  1010.0 hPa NE 5.8 mph /  9.3 km/h 5.8 mph /  9.3 km/h 63 % 0 in /  0.0 mm
21:50 73.6 °F /  23.1 °C 65.1 °F /  18.4 °C 29.8 in /  1010.0 hPa NE 2 mph /  3.2 km/h 3 mph /  4.8 km/h 75 % 0 in /  0.0 mm
21:51 78.3 °F /  25.7 °C 65.1 °F /  18.4 °C 29.8 in /  1010.0 hPa East 5.8 mph /  9.3 km/h 5.8 mph /  9.3 km/h 64 % 0 in /  0.0 mm
21:56 78.1 °F /  25.6 °C 64.9 °F /  18.3 °C 29.8 in /  1010.0 hPa ENE 3.6 mph /  5.8 km/h 3.6 mph /  5.8 km/h 64 % 0 in /  0.0 mm
22:00 73.6 °F /  23.1 °C 64.8 °F /  18.2 °C 29.8 in /  1010.0 hPa NE 1 mph /  1.6 km/h 3 mph /  4.8 km/h 74 % 0 in /  0.0 mm
22:01 78.1 °F /  25.6 °C 64.9 °F /  18.3 °C 29.8 in /  1010.0 hPa NE 3.5 mph /  5.6 km/h 3.5 mph /  5.6 km/h 64 % 0 in /  0.0 mm
22:06 77.9 °F /  25.5 °C 64.8 °F /  18.2 °C 29.8 in /  1010.0 hPa East 3.5 mph /  5.6 km/h 3.5 mph /  5.6 km/h 64 % 0 in /  0.0 mm
22:10 73.6 °F /  23.1 °C 64.8 °F /  18.2 °C 29.8 in /  1010.0 hPa NE 2 mph /  3.2 km/h 2 mph /  3.2 km/h 74 % 0 in /  0.0 mm
22:16 77.7 °F /  25.4 °C 65.5 °F /  18.6 °C 29.8 in /  1010.0 hPa ENE 3.5 mph /  5.6 km/h 3.5 mph /  5.6 km/h 66 % 0 in /  0.0 mm
22:20 73.6 °F /  23.1 °C 64.4 °F /  18.0 °C 29.8 in /  1010.0 hPa ENE 2 mph /  3.2 km/h 5 mph /  8.0 km/h 73 % 0 in /  0.0 mm
22:21 77.5 °F /  25.3 °C 65.3 °F /  18.5 °C 29.8 in /  1010.7 hPa East 3.6 mph /  5.8 km/h 3.6 mph /  5.8 km/h 66 % 0 in /  0.0 mm
22:26 77.5 °F /  25.3 °C 65.7 °F /  18.7 °C 29.8 in /  1010.7 hPa ENE 2.3 mph /  3.7 km/h 2.6 mph /  4.2 km/h 67 % 0 in /  0.0 mm
22:30 73.6 °F /  23.1 °C 64 °F /  17.8 °C 29.8 in /  1010.0 hPa East 2 mph /  3.2 km/h 6 mph /  9.7 km/h 72 % 0 in /  0.0 mm
22:31 77.4 °F /  25.2 °C 66 °F /  18.9 °C 29.8 in /  1010.7 hPa North 4.6 mph /  7.4 km/h 4.6 mph /  7.4 km/h 68 % 0 in /  0.0 mm
22:36 77.2 °F /  25.1 °C 65.8 °F /  18.8 °C 29.8 in /  1010.7 hPa ENE 2.3 mph /  3.7 km/h 2.3 mph /  3.7 km/h 68 % 0 in /  0.0 mm
22:40 73.6 °F /  23.1 °C 63.7 °F /  17.6 °C 29.8 in /  1010.0 hPa ENE 3 mph /  4.8 km/h 3 mph /  4.8 km/h 71 % 0 in /  0.0 mm
22:41 77 °F /  25.0 °C 65.7 °F /  18.7 °C 29.8 in /  1010.7 hPa NNE 3.5 mph /  5.6 km/h 3.6 mph /  5.8 km/h 68 % 0 in /  0.0 mm
22:46 76.8 °F /  24.9 °C 66.4 °F /  19.1 °C 29.8 in /  1010.7 hPa ENE 2.6 mph /  4.2 km/h 2.6 mph /  4.2 km/h 70 % 0 in /  0.0 mm
22:50 73.6 °F /  23.1 °C 63.7 °F /  17.6 °C 29.8 in /  1010.0 hPa ENE 3 mph /  4.8 km/h 4 mph /  6.4 km/h 71 % 0 in /  0.0 mm
22:51 76.6 °F /  24.8 °C 66 °F /  18.9 °C 29.8 in /  1010.7 hPa ENE 4.6 mph /  7.4 km/h 4.6 mph /  7.4 km/h 70 % 0 in /  0.0 mm
22:56 76.6 °F /  24.8 °C 66 °F /  18.9 °C 29.8 in /  1010.7 hPa ENE 5.8 mph /  9.3 km/h 5.8 mph /  9.3 km/h 70 % 0 in /  0.0 mm
23:00 73.4 °F /  23.0 °C 63.3 °F /  17.4 °C 29.8 in /  1010.0 hPa NE 3 mph /  4.8 km/h 4 mph /  6.4 km/h 71 % 0 in /  0.0 mm
23:01 76.5 °F /  24.7 °C 65.8 °F /  18.8 °C 29.8 in /  1010.7 hPa ENE 4.6 mph /  7.4 km/h 4.6 mph /  7.4 km/h 70 % 0 in /  0.0 mm
23:06 76.3 °F /  24.6 °C 65.8 °F /  18.8 °C 29.8 in /  1010.7 hPa East 2.6 mph /  4.2 km/h 2.6 mph /  4.2 km/h 70 % 0 in /  0.0 mm
23:10 73 °F /  22.8 °C 63.1 °F /  17.3 °C 29.8 in /  1010.0 hPa NE 2 mph /  3.2 km/h 3 mph /  4.8 km/h 71 % 0 in /  0.0 mm
23:11 76.3 °F /  24.6 °C 66.2 °F /  19.0 °C 29.8 in /  1010.7 hPa NNE 2.4 mph /  3.9 km/h 2.4 mph /  3.9 km/h 71 % 0 in /  0.0 mm
23:16 76.3 °F /  24.6 °C 66.2 °F /  19.0 °C 29.8 in /  1010.7 hPa ENE 4.6 mph /  7.4 km/h 4.6 mph /  7.4 km/h 71 % 0 in /  0.0 mm
23:20 72.9 °F /  22.7 °C 63 °F /  17.2 °C 29.8 in /  1010.0 hPa NNE 3 mph /  4.8 km/h 4 mph /  6.4 km/h 71 % 0 in /  0.0 mm
23:21 76.3 °F /  24.6 °C 66.2 °F /  19.0 °C 29.8 in /  1010.7 hPa ENE 2.3 mph /  3.7 km/h 2.3 mph /  3.7 km/h 71 % 0 in /  0.0 mm
23:26 76.1 °F /  24.5 °C 66 °F /  18.9 °C 29.8 in /  1010.7 hPa ENE 2.4 mph /  3.9 km/h 2.4 mph /  3.9 km/h 71 % 0 in /  0.0 mm
23:30 72.9 °F /  22.7 °C 63 °F /  17.2 °C 29.8 in /  1010.0 hPa NE 3 mph /  4.8 km/h 4 mph /  6.4 km/h 71 % 0 in /  0.0 mm
23:31 76.1 °F /  24.5 °C 66 °F /  18.9 °C 29.8 in /  1010.7 hPa East 2.9 mph /  4.7 km/h 2.9 mph /  4.7 km/h 71 % 0 in /  0.0 mm
23:36 75.9 °F /  24.4 °C 66.2 °F /  19.0 °C 29.8 in /  1010.0 hPa NNE 1.2 mph /  1.9 km/h 1.2 mph /  1.9 km/h 72 % 0 in /  0.0 mm
23:40 72.7 °F /  22.6 °C 62.8 °F /  17.1 °C 29.8 in /  1010.0 hPa NE 3 mph /  4.8 km/h 4 mph /  6.4 km/h 71 % 0 in /  0.0 mm
23:41 75.9 °F /  24.4 °C 66.2 °F /  19.0 °C 29.8 in /  1010.0 hPa Calm     72 % 0 in /  0.0 mm
23:46 75.7 °F /  24.3 °C 66 °F /  18.9 °C 29.8 in /  1010.0 hPa Calm     72 % 0 in /  0.0 mm
23:50 72.7 °F /  22.6 °C 62.8 °F /  17.1 °C 29.8 in /  1010.0 hPa NE 3 mph /  4.8 km/h 4 mph /  6.4 km/h 71 % 0 in /  0.0 mm
23:51 75.7 °F /  24.3 °C 66 °F /  18.9 °C 29.8 in /  1010.0 hPa SW 2.3 mph /  3.7 km/h 2.3 mph /  3.7 km/h 72 % 0 in /  0.0 mm
23:56 75.6 °F /  24.2 °C 65.8 °F /  18.8 °C 29.8 in /  1010.0 hPa SW 1.2 mph /  1.9 km/h   72 % 0 in /  0.0 mm
Meteo Sesrovires
Elogis d' Weather Underground - 3.5 mb

Guio original per  Jim McMurry - jmcmurry@mwt.net Adaptat per a la plantilla per  Wim van der Kuil - Leuven-Template.eu

Trobareu la nostra informacio del temps tambe a:

Weather Underground

AWEKAS